createdAt,value
2019-02-15T00:18:40.243Z,130.58
2019-02-15T00:38:39.740Z,27.36
2019-02-15T00:58:49.402Z,32.60
2019-02-15T01:18:59.047Z,27.57
2019-02-15T01:39:10.820Z,44.25
2019-02-15T01:59:10.471Z,52.55
2019-02-15T02:19:22.360Z,49.66
2019-02-15T02:39:22.012Z,57.00
2019-02-15T02:59:31.677Z,40.06
2019-02-15T03:19:41.161Z,37.94
2019-02-15T03:39:50.754Z,22.07
2019-02-15T04:00:00.503Z,16.14
2019-02-15T04:20:10.103Z,15.26
2019-02-15T04:40:19.662Z,17.53
2019-02-15T05:00:29.235Z,23.74
2019-02-15T05:20:38.878Z,15.36
2019-02-15T05:40:48.506Z,25.93
2019-02-15T06:00:58.140Z,14.18
2019-02-15T06:21:07.661Z,10.42
2019-02-15T06:41:17.417Z,15.09
2019-02-15T07:01:27.181Z,15.18
2019-02-15T07:21:36.863Z,12.00
2019-02-15T07:41:46.630Z,8.28
2019-02-15T08:02:01.927Z,5.69
2019-02-15T08:22:05.524Z,8.28
2019-02-15T08:42:15.151Z,10.51
2019-02-15T09:02:24.742Z,18.68
2019-02-15T09:22:34.174Z,12.51
2019-02-15T09:42:43.826Z,17.77
2019-02-15T10:02:53.351Z,16.09
2019-02-15T10:23:05.497Z,10.92
2019-02-15T10:43:05.098Z,12.81
2019-02-15T11:03:17.028Z,17.79
2019-02-15T11:23:16.797Z,19.30
2019-02-15T11:43:26.426Z,17.91
2019-02-15T12:03:36.312Z,20.23
2019-02-15T12:23:48.047Z,22.97
2019-02-15T12:43:47.679Z,40.60
2019-02-15T13:03:57.214Z,16.35
2019-02-15T13:24:07.117Z,12.05
2019-02-15T13:44:17.895Z,13.18
2019-02-15T14:04:25.729Z,26.45
2019-02-15T14:24:35.388Z,31.91
2019-02-15T14:44:45.042Z,43.19
2019-02-15T15:04:54.699Z,51.38
2019-02-15T15:25:05.582Z,44.33
2019-02-15T15:45:05.336Z,39.07
2019-02-15T16:05:15.603Z,42.60
2019-02-15T16:25:15.337Z,46.75
2019-02-15T16:45:25.017Z,43.56
2019-02-15T17:05:34.523Z,43.89
2019-02-15T17:25:45.765Z,64.37
2019-02-15T17:45:53.359Z,51.99
2019-02-15T18:06:02.903Z,52.11
2019-02-15T18:26:12.517Z,49.86
2019-02-15T18:46:24.491Z,75.72
2019-02-15T19:06:26.377Z,72.86
2019-02-15T19:26:26.065Z,36.00
2019-02-15T19:46:36.038Z,31.26
2019-02-15T20:06:45.641Z,34.20
2019-02-15T20:26:57.634Z,38.68
2019-02-15T20:46:57.422Z,35.70
2019-02-15T21:07:07.085Z,53.01
2019-02-15T21:27:16.634Z,37.13
2019-02-15T21:47:26.275Z,34.94
2019-02-15T22:07:35.814Z,41.31
2019-02-15T22:27:47.742Z,73.71
2019-02-15T22:47:47.268Z,48.29
2019-02-15T23:07:56.798Z,46.27
2019-02-15T23:28:06.435Z,48.97
2019-02-15T23:48:15.974Z,45.35
